Aéroclub Castres-Mazamet
ACCUEIL




METAR
LFCK 012000Z AUTO 28009KT 9999 OVC008 08/07 Q1011 TEMPO 4000 SHRA BKN009 SCT015TCU



Liens utiles


F.F.A
Météo France
OLIVIA
SIA
D.G.A.C

Bienvenue à l'aéroclub de Castres-Mazamet


.


               


Actualités

 Nouveau Pilote   
Publié le 21-Nov-2021    
Un nouveau pilote au Club. Baptiste Lujan a réussi hier son PPLA. Bravo à lui, et bon vol!


 Moment de convivialité au Club   
Publié le 09-Nov-2021    
Bonjour à tous, Nous vous proposons de nous retrouver le dimanche 21 novembre pour un nouveau moment d’échanges accompagné de viennoiseries, café, ... et de quelques vols si le temps le permet! Merci de confirmer votre présence au plus tôt.


 Petit-déjeuner au Club   
Publié le 11-Oct-2021    
Dimanche 10 octobre, le Club a offert aux adhérents présents le petit déjeuner. L'occasion pour tous de partager de bons moments, et aussi de belles expériences. Une vingtaine de personnes étaient présentes. A renouveler!


 Championnats de France de voltige - Castres 20-28 septembre   
Publié le 15-Aug-2021    
Le Club a accueilli les championnats de France de voltige du 20 au 28 septembre. De bons moments partagés, tant dans les airs, que sur la piste!


Voir plus